Strona główna
METAR-TAF:

METAR-TAF

Lotnisko :

Curaçao, Antyle Holenderskie

Port lotniczy Curaçao

Szerokość geograficzna: 12-12N, Długość geograficzna: 068-58W, wysokość: 9 m

Aktualna obserwacja pogody

Raport powstał 54 minut temu, godzina 07:00 UTC
Wiatr 6 kt od południowy wschód, zmienny między wschód i południowo-południowy wschód
Temperatura 26°C
Wilgotność 79%
Ciśnienie 1012 hPa
Widzialność 10 km lub więcej
Rozproszone chmury na wysokości 1800 ft

METAR: TNCC 160700Z 13006KT 090V150 9999 SCT018 26/22 Q1012 NOSIG

czas: 03:54 (07:54 UTC)

Prognoza

Raport powstał 4 godziny i 54 minut temu, godzina 03:00 UTC
Prognoza ważna od 16 godzina 06 UTC do 17 godzina 06 UTC
Wiatr 8 kt od wschód
Widzialność 10 km lub więcej
Rozproszone chmury na wysokości 2000 ft
Prawdopodobieństwo 30% :
Przejściowo
od 16 godzina 09 UTC do 16 godzina 16 UTC
Widzialność: 8000 m
Przerywane chmury na wysokości 1500 ft
przelotny opad deszczu

TAF: TNCC 160300Z 1606/1706 10008KT 9999 SCT020 PROB30 TEMPO 1609/1616 8000 SHRA BKN015

Obserwacja i prognoza pogody dla ponad 4000 lotnisk (raport METAR i TAF).

Dostępne stacje oznaczono żółtymi i czerwonymi punktami na mapie.

Najedź kursorem aby zobaczyć nazwę stacji.

Kliknij aby zobaczyć obserwacje i prognozy pogody.

Aby zmienić mapę: kliknij na zielony przycisk z czarnym krzyżykiem, aby powiększyć; na zielony przycisk z myślnikiem, aby pomniejszyć; na zielone strzałki, aby przejść do map sąsiednich.


METAR-TAF: